sensor_id;sensor_type;location;lat;lon;timestamp;P1;durP1;ratioP1;P2;durP2;ratioP2
33403;SDS011;19751;40.274;18.268;2022-10-31T00:00:54;32.00;;;21.23;;
33403;SDS011;19751;40.274;18.268;2022-10-31T00:03:19;34.10;;;19.92;;
33403;SDS011;19751;40.274;18.268;2022-10-31T00:05:46;32.95;;;20.48;;
33403;SDS011;19751;40.274;18.268;2022-10-31T00:08:13;36.67;;;21.10;;
33403;SDS011;19751;40.274;18.268;2022-10-31T00:10:39;35.90;;;23.27;;
33403;SDS011;19751;40.274;18.268;2022-10-31T00:13:06;34.25;;;20.60;;
33403;SDS011;19751;40.274;18.268;2022-10-31T00:15:33;31.67;;;20.42;;
33403;SDS011;19751;40.274;18.268;2022-10-31T00:17:59;46.05;;;25.27;;
33403;SDS011;19751;40.274;18.268;2022-10-31T00:20:25;30.90;;;20.40;;
33403;SDS011;19751;40.274;18.268;2022-10-31T00:22:50;40.22;;;24.30;;
33403;SDS011;19751;40.274;18.268;2022-10-31T00:25:15;36.58;;;22.02;;
33403;SDS011;19751;40.274;18.268;2022-10-31T00:27:41;38.55;;;23.17;;
33403;SDS011;19751;40.274;18.268;2022-10-31T00:30:06;39.53;;;23.85;;
33403;SDS011;19751;40.274;18.268;2022-10-31T00:32:32;35.05;;;21.90;;
33403;SDS011;19751;40.274;18.268;2022-10-31T00:34:58;30.60;;;19.05;;
33403;SDS011;19751;40.274;18.268;2022-10-31T00:37:23;32.78;;;19.98;;
33403;SDS011;19751;40.274;18.268;2022-10-31T00:39:49;32.60;;;18.30;;
33403;SDS011;19751;40.274;18.268;2022-10-31T00:42:14;30.65;;;19.92;;
33403;SDS011;19751;40.274;18.268;2022-10-31T00:44:40;36.80;;;22.70;;
33403;SDS011;19751;40.274;18.268;2022-10-31T00:47:06;28.88;;;18.52;;
33403;SDS011;19751;40.274;18.268;2022-10-31T00:49:31;30.75;;;18.92;;
33403;SDS011;19751;40.274;18.268;2022-10-31T00:51:57;31.45;;;20.27;;
33403;SDS011;19751;40.274;18.268;2022-10-31T00:54:22;29.40;;;21.48;;
33403;SDS011;19751;40.274;18.268;2022-10-31T00:56:48;39.58;;;24.27;;
33403;SDS011;19751;40.274;18.268;2022-10-31T00:59:13;38.78;;;23.65;;
33403;SDS011;19751;40.274;18.268;2022-10-31T01:01:39;36.88;;;21.75;;
33403;SDS011;19751;40.274;18.268;2022-10-31T01:04:04;33.20;;;21.30;;
33403;SDS011;19751;40.274;18.268;2022-10-31T01:06:30;31.52;;;17.77;;
33403;SDS011;19751;40.274;18.268;2022-10-31T01:08:55;35.53;;;21.73;;
33403;SDS011;19751;40.274;18.268;2022-10-31T01:11:22;35.28;;;22.55;;
33403;SDS011;19751;40.274;18.268;2022-10-31T01:13:52;32.53;;;20.20;;
33403;SDS011;19751;40.274;18.268;2022-10-31T01:16:19;37.75;;;24.20;;
33403;SDS011;19751;40.274;18.268;2022-10-31T01:18:47;32.85;;;20.77;;
33403;SDS011;19751;40.274;18.268;2022-10-31T01:21:13;31.27;;;19.73;;
33403;SDS011;19751;40.274;18.268;2022-10-31T01:23:41;33.88;;;21.60;;
33403;SDS011;19751;40.274;18.268;2022-10-31T01:28:48;40.80;;;24.02;;
33403;SDS011;19751;40.274;18.268;2022-10-31T01:31:16;41.55;;;22.70;;
33403;SDS011;19751;40.274;18.268;2022-10-31T01:33:43;35.95;;;21.77;;
33403;SDS011;19751;40.274;18.268;2022-10-31T01:38:52;32.95;;;19.80;;
33403;SDS011;19751;40.274;18.268;2022-10-31T01:41:21;34.28;;;21.92;;
33403;SDS011;19751;40.274;18.268;2022-10-31T01:44:00;26.58;;;18.60;;
33403;SDS011;19751;40.274;18.268;2022-10-31T01:48:59;34.72;;;19.73;;
33403;SDS011;19751;40.274;18.268;2022-10-31T01:51:28;23.15;;;16.33;;
33403;SDS011;19751;40.274;18.268;2022-10-31T01:54:01;19.65;;;15.60;;
33403;SDS011;19751;40.274;18.268;2022-10-31T01:56:32;24.88;;;16.88;;
33403;SDS011;19751;40.274;18.268;2022-10-31T01:59:02;25.83;;;16.50;;
33403;SDS011;19751;40.274;18.268;2022-10-31T02:01:33;21.98;;;16.25;;
33403;SDS011;19751;40.274;18.268;2022-10-31T02:03:59;32.10;;;17.80;;
33403;SDS011;19751;40.274;18.268;2022-10-31T02:09:29;24.35;;;15.50;;
33403;SDS011;19751;40.274;18.268;2022-10-31T02:11:56;24.02;;;15.55;;
33403;SDS011;19751;40.274;18.268;2022-10-31T02:14:25;23.65;;;16.77;;
33403;SDS011;19751;40.274;18.268;2022-10-31T02:16:53;25.00;;;16.17;;
33403;SDS011;19751;40.274;18.268;2022-10-31T02:19:24;23.70;;;15.10;;
33403;SDS011;19751;40.274;18.268;2022-10-31T02:33:23;19.13;;;14.93;;
33403;SDS011;19751;40.274;18.268;2022-10-31T02:38:43;23.13;;;15.82;;
33403;SDS011;19751;40.274;18.268;2022-10-31T02:41:23;22.58;;;15.07;;
33403;SDS011;19751;40.274;18.268;2022-10-31T02:44:01;24.63;;;14.93;;
33403;SDS011;19751;40.274;18.268;2022-10-31T02:46:39;20.02;;;12.93;;
33403;SDS011;19751;40.274;18.268;2022-10-31T02:49:11;24.10;;;16.83;;
33403;SDS011;19751;40.274;18.268;2022-10-31T02:51:47;20.77;;;13.95;;
33403;SDS011;19751;40.274;18.268;2022-10-31T02:54:21;23.60;;;14.13;;
33403;SDS011;19751;40.274;18.268;2022-10-31T02:56:48;22.15;;;14.65;;
33403;SDS011;19751;40.274;18.268;2022-10-31T02:59:19;21.60;;;15.27;;
33403;SDS011;19751;40.274;18.268;2022-10-31T03:15:40;20.92;;;13.52;;
33403;SDS011;19751;40.274;18.268;2022-10-31T03:23:40;16.90;;;11.40;;
33403;SDS011;19751;40.274;18.268;2022-10-31T03:26:08;16.73;;;11.15;;
33403;SDS011;19751;40.274;18.268;2022-10-31T03:28:41;24.45;;;15.52;;
33403;SDS011;19751;40.274;18.268;2022-10-31T03:31:11;20.13;;;12.13;;
33403;SDS011;19751;40.274;18.268;2022-10-31T03:33:41;21.23;;;14.70;;
33403;SDS011;19751;40.274;18.268;2022-10-31T03:36:08;19.73;;;12.70;;
33403;SDS011;19751;40.274;18.268;2022-10-31T03:38:36;22.63;;;12.75;;
33403;SDS011;19751;40.274;18.268;2022-10-31T03:41:03;18.73;;;12.52;;
33403;SDS011;19751;40.274;18.268;2022-10-31T03:43:33;15.90;;;11.35;;
33403;SDS011;19751;40.274;18.268;2022-10-31T03:46:05;23.45;;;13.88;;
33403;SDS011;19751;40.274;18.268;2022-10-31T03:48:31;19.13;;;12.93;;
33403;SDS011;19751;40.274;18.268;2022-10-31T03:53:24;18.63;;;12.55;;
33403;SDS011;19751;40.274;18.268;2022-10-31T03:56:00;22.75;;;12.80;;
33403;SDS011;19751;40.274;18.268;2022-10-31T03:58:35;23.35;;;14.48;;
33403;SDS011;19751;40.274;18.268;2022-10-31T04:01:05;19.80;;;13.00;;
33403;SDS011;19751;40.274;18.268;2022-10-31T04:03:34;17.83;;;12.63;;
33403;SDS011;19751;40.274;18.268;2022-10-31T04:06:04;18.50;;;11.93;;
33403;SDS011;19751;40.274;18.268;2022-10-31T04:08:35;14.60;;;11.27;;
33403;SDS011;19751;40.274;18.268;2022-10-31T04:11:05;21.83;;;13.68;;
33403;SDS011;19751;40.274;18.268;2022-10-31T04:13:33;26.42;;;15.10;;
33403;SDS011;19751;40.274;18.268;2022-10-31T04:16:02;24.52;;;13.88;;
33403;SDS011;19751;40.274;18.268;2022-10-31T04:18:28;24.88;;;14.52;;
33403;SDS011;19751;40.274;18.268;2022-10-31T04:21:01;23.88;;;13.27;;
33403;SDS011;19751;40.274;18.268;2022-10-31T04:23:31;21.42;;;12.18;;
33403;SDS011;19751;40.274;18.268;2022-10-31T04:25:58;18.20;;;11.23;;
33403;SDS011;19751;40.274;18.268;2022-10-31T04:28:23;19.27;;;12.00;;
33403;SDS011;19751;40.274;18.268;2022-10-31T04:30:49;24.20;;;12.98;;
33403;SDS011;19751;40.274;18.268;2022-10-31T04:33:15;19.15;;;12.65;;
33403;SDS011;19751;40.274;18.268;2022-10-31T04:35:41;24.23;;;13.38;;
33403;SDS011;19751;40.274;18.268;2022-10-31T04:38:06;22.08;;;14.07;;
33403;SDS011;19751;40.274;18.268;2022-10-31T04:40:32;20.23;;;12.32;;
33403;SDS011;19751;40.274;18.268;2022-10-31T04:42:57;25.67;;;13.18;;
33403;SDS011;19751;40.274;18.268;2022-10-31T04:45:23;18.48;;;12.27;;
33403;SDS011;19751;40.274;18.268;2022-10-31T04:47:48;22.08;;;14.18;;
33403;SDS011;19751;40.274;18.268;2022-10-31T04:50:14;20.45;;;12.15;;
33403;SDS011;19751;40.274;18.268;2022-10-31T04:52:40;19.05;;;10.90;;
33403;SDS011;19751;40.274;18.268;2022-10-31T04:55:07;16.10;;;9.93;;
33403;SDS011;19751;40.274;18.268;2022-10-31T04:57:40;23.13;;;13.15;;
33403;SDS011;19751;40.274;18.268;2022-10-31T05:00:11;20.83;;;11.60;;
33403;SDS011;19751;40.274;18.268;2022-10-31T05:02:45;19.73;;;11.07;;
33403;SDS011;19751;40.274;18.268;2022-10-31T05:05:14;15.70;;;10.43;;
33403;SDS011;19751;40.274;18.268;2022-10-31T05:07:42;19.92;;;11.30;;
33403;SDS011;19751;40.274;18.268;2022-10-31T05:10:12;22.33;;;10.98;;
33403;SDS011;19751;40.274;18.268;2022-10-31T05:12:49;18.38;;;10.93;;
33403;SDS011;19751;40.274;18.268;2022-10-31T05:15:16;18.85;;;10.52;;
33403;SDS011;19751;40.274;18.268;2022-10-31T05:17:43;19.80;;;10.45;;
33403;SDS011;19751;40.274;18.268;2022-10-31T05:20:09;15.82;;;10.15;;
33403;SDS011;19751;40.274;18.268;2022-10-31T05:22:36;17.65;;;10.50;;
33403;SDS011;19751;40.274;18.268;2022-10-31T05:25:02;14.80;;;9.35;;
33403;SDS011;19751;40.274;18.268;2022-10-31T05:27:28;22.35;;;10.73;;
33403;SDS011;19751;40.274;18.268;2022-10-31T05:29:54;14.82;;;10.93;;
33403;SDS011;19751;40.274;18.268;2022-10-31T05:32:19;18.42;;;9.98;;
33403;SDS011;19751;40.274;18.268;2022-10-31T05:34:45;15.90;;;9.82;;
33403;SDS011;19751;40.274;18.268;2022-10-31T05:37:10;16.17;;;10.52;;
33403;SDS011;19751;40.274;18.268;2022-10-31T05:39:35;21.50;;;10.70;;
33403;SDS011;19751;40.274;18.268;2022-10-31T05:42:01;15.48;;;8.80;;
33403;SDS011;19751;40.274;18.268;2022-10-31T05:44:26;19.35;;;10.50;;
33403;SDS011;19751;40.274;18.268;2022-10-31T05:46:52;17.92;;;12.02;;
33403;SDS011;19751;40.274;18.268;2022-10-31T05:49:17;23.88;;;12.07;;
33403;SDS011;19751;40.274;18.268;2022-10-31T05:51:43;22.83;;;11.05;;
33403;SDS011;19751;40.274;18.268;2022-10-31T05:54:08;18.80;;;11.07;;
33403;SDS011;19751;40.274;18.268;2022-10-31T05:56:34;26.30;;;15.15;;
33403;SDS011;19751;40.274;18.268;2022-10-31T05:59:00;45.97;;;28.98;;
33403;SDS011;19751;40.274;18.268;2022-10-31T06:01:26;54.42;;;31.55;;
33403;SDS011;19751;40.274;18.268;2022-10-31T06:03:52;35.33;;;22.92;;
33403;SDS011;19751;40.274;18.268;2022-10-31T06:06:17;30.30;;;19.20;;
33403;SDS011;19751;40.274;18.268;2022-10-31T06:08:43;27.73;;;16.55;;
33403;SDS011;19751;40.274;18.268;2022-10-31T06:11:08;25.75;;;14.85;;
33403;SDS011;19751;40.274;18.268;2022-10-31T06:13:34;34.00;;;16.88;;
33403;SDS011;19751;40.274;18.268;2022-10-31T06:15:59;28.75;;;15.35;;
33403;SDS011;19751;40.274;18.268;2022-10-31T06:18:27;30.55;;;15.25;;
33403;SDS011;19751;40.274;18.268;2022-10-31T06:20:52;25.70;;;13.43;;
33403;SDS011;19751;40.274;18.268;2022-10-31T06:23:19;24.60;;;14.70;;
33403;SDS011;19751;40.274;18.268;2022-10-31T06:25:48;25.42;;;14.80;;
33403;SDS011;19751;40.274;18.268;2022-10-31T06:28:17;22.23;;;11.80;;
33403;SDS011;19751;40.274;18.268;2022-10-31T06:30:42;18.10;;;10.65;;
33403;SDS011;19751;40.274;18.268;2022-10-31T06:33:08;19.10;;;11.10;;
33403;SDS011;19751;40.274;18.268;2022-10-31T06:35:33;20.08;;;12.20;;
33403;SDS011;19751;40.274;18.268;2022-10-31T06:37:59;20.25;;;12.45;;
33403;SDS011;19751;40.274;18.268;2022-10-31T06:40:25;21.30;;;11.65;;
33403;SDS011;19751;40.274;18.268;2022-10-31T06:42:59;21.02;;;13.25;;
33403;SDS011;19751;40.274;18.268;2022-10-31T06:45:25;20.13;;;12.27;;
33403;SDS011;19751;40.274;18.268;2022-10-31T06:47:52;29.27;;;11.82;;
33403;SDS011;19751;40.274;18.268;2022-10-31T06:50:18;17.25;;;10.15;;
33403;SDS011;19751;40.274;18.268;2022-10-31T06:52:54;19.13;;;11.13;;
33403;SDS011;19751;40.274;18.268;2022-10-31T06:55:24;18.10;;;11.23;;
33403;SDS011;19751;40.274;18.268;2022-10-31T06:57:55;14.02;;;9.75;;
33403;SDS011;19751;40.274;18.268;2022-10-31T07:00:22;24.38;;;11.77;;
33403;SDS011;19751;40.274;18.268;2022-10-31T07:03:02;24.67;;;12.68;;
33403;SDS011;19751;40.274;18.268;2022-10-31T07:05:29;23.60;;;10.82;;
33403;SDS011;19751;40.274;18.268;2022-10-31T07:07:56;20.70;;;11.20;;
33403;SDS011;19751;40.274;18.268;2022-10-31T07:10:27;21.23;;;13.30;;
33403;SDS011;19751;40.274;18.268;2022-10-31T07:12:54;22.95;;;12.27;;
33403;SDS011;19751;40.274;18.268;2022-10-31T07:15:21;22.00;;;11.85;;
33403;SDS011;19751;40.274;18.268;2022-10-31T07:17:47;21.13;;;12.82;;
33403;SDS011;19751;40.274;18.268;2022-10-31T07:20:12;19.90;;;11.10;;
33403;SDS011;19751;40.274;18.268;2022-10-31T07:22:38;25.73;;;12.30;;
33403;SDS011;19751;40.274;18.268;2022-10-31T07:25:04;26.42;;;13.00;;
33403;SDS011;19751;40.274;18.268;2022-10-31T07:27:36;22.00;;;12.55;;
33403;SDS011;19751;40.274;18.268;2022-10-31T07:30:06;27.90;;;15.27;;
33403;SDS011;19751;40.274;18.268;2022-10-31T07:32:46;25.35;;;13.40;;
33403;SDS011;19751;40.274;18.268;2022-10-31T07:35:14;27.23;;;12.63;;
33403;SDS011;19751;40.274;18.268;2022-10-31T07:37:44;22.85;;;13.27;;
33403;SDS011;19751;40.274;18.268;2022-10-31T07:40:10;26.65;;;14.07;;
33403;SDS011;19751;40.274;18.268;2022-10-31T07:42:40;26.70;;;15.63;;
33403;SDS011;19751;40.274;18.268;2022-10-31T07:45:08;22.05;;;13.50;;
33403;SDS011;19751;40.274;18.268;2022-10-31T07:47:39;27.00;;;13.85;;
33403;SDS011;19751;40.274;18.268;2022-10-31T07:50:05;31.95;;;13.57;;
33403;SDS011;19751;40.274;18.268;2022-10-31T07:52:31;23.98;;;14.65;;
33403;SDS011;19751;40.274;18.268;2022-10-31T07:54:57;26.88;;;14.65;;
33403;SDS011;19751;40.274;18.268;2022-10-31T07:57:22;26.45;;;15.15;;
33403;SDS011;19751;40.274;18.268;2022-10-31T07:59:48;24.08;;;15.35;;
33403;SDS011;19751;40.274;18.268;2022-10-31T08:02:13;25.25;;;14.93;;
33403;SDS011;19751;40.274;18.268;2022-10-31T08:04:39;30.65;;;15.68;;
33403;SDS011;19751;40.274;18.268;2022-10-31T08:07:04;40.17;;;16.20;;
33403;SDS011;19751;40.274;18.268;2022-10-31T08:09:30;17.25;;;12.02;;
33403;SDS011;19751;40.274;18.268;2022-10-31T08:11:55;21.70;;;13.05;;
33403;SDS011;19751;40.274;18.268;2022-10-31T08:14:21;29.58;;;13.88;;
33403;SDS011;19751;40.274;18.268;2022-10-31T08:16:47;29.70;;;14.18;;
33403;SDS011;19751;40.274;18.268;2022-10-31T08:19:13;21.27;;;12.38;;
33403;SDS011;19751;40.274;18.268;2022-10-31T08:21:38;23.38;;;11.25;;
33403;SDS011;19751;40.274;18.268;2022-10-31T08:24:04;27.67;;;14.32;;
33403;SDS011;19751;40.274;18.268;2022-10-31T08:26:30;28.08;;;13.88;;
33403;SDS011;19751;40.274;18.268;2022-10-31T08:28:56;28.10;;;14.02;;
33403;SDS011;19751;40.274;18.268;2022-10-31T08:31:21;25.40;;;14.13;;
33403;SDS011;19751;40.274;18.268;2022-10-31T08:33:48;21.13;;;12.88;;
33403;SDS011;19751;40.274;18.268;2022-10-31T08:36:13;22.85;;;13.15;;
33403;SDS011;19751;40.274;18.268;2022-10-31T08:38:39;29.33;;;12.88;;
33403;SDS011;19751;40.274;18.268;2022-10-31T08:41:04;24.65;;;12.23;;
33403;SDS011;19751;40.274;18.268;2022-10-31T08:43:30;21.67;;;12.95;;
33403;SDS011;19751;40.274;18.268;2022-10-31T08:45:55;21.10;;;12.65;;
33403;SDS011;19751;40.274;18.268;2022-10-31T08:48:21;32.72;;;15.27;;
33403;SDS011;19751;40.274;18.268;2022-10-31T08:50:46;27.30;;;15.02;;
33403;SDS011;19751;40.274;18.268;2022-10-31T08:53:17;26.33;;;14.07;;
33403;SDS011;19751;40.274;18.268;2022-10-31T08:55:44;33.67;;;15.40;;
33403;SDS011;19751;40.274;18.268;2022-10-31T08:58:11;26.50;;;15.63;;
33403;SDS011;19751;40.274;18.268;2022-10-31T09:00:39;25.70;;;17.77;;
33403;SDS011;19751;40.274;18.268;2022-10-31T09:03:06;27.15;;;15.10;;
33403;SDS011;19751;40.274;18.268;2022-10-31T09:05:36;21.67;;;13.32;;
33403;SDS011;19751;40.274;18.268;2022-10-31T09:08:02;26.73;;;13.77;;
33403;SDS011;19751;40.274;18.268;2022-10-31T09:10:30;24.55;;;13.90;;
33403;SDS011;19751;40.274;18.268;2022-10-31T09:12:57;22.15;;;13.15;;
33403;SDS011;19751;40.274;18.268;2022-10-31T09:15:31;26.83;;;13.98;;
33403;SDS011;19751;40.274;18.268;2022-10-31T09:17:58;28.17;;;12.45;;
33403;SDS011;19751;40.274;18.268;2022-10-31T09:20:23;23.23;;;12.57;;
33403;SDS011;19751;40.274;18.268;2022-10-31T09:22:55;26.00;;;12.98;;
33403;SDS011;19751;40.274;18.268;2022-10-31T09:25:22;21.20;;;11.65;;
33403;SDS011;19751;40.274;18.268;2022-10-31T09:27:47;21.75;;;11.95;;
33403;SDS011;19751;40.274;18.268;2022-10-31T09:30:13;16.70;;;10.85;;
33403;SDS011;19751;40.274;18.268;2022-10-31T09:32:39;25.05;;;11.93;;
33403;SDS011;19751;40.274;18.268;2022-10-31T09:35:04;19.55;;;11.80;;
33403;SDS011;19751;40.274;18.268;2022-10-31T09:37:30;22.30;;;10.90;;
33403;SDS011;19751;40.274;18.268;2022-10-31T09:39:56;28.13;;;14.57;;
33403;SDS011;19751;40.274;18.268;2022-10-31T09:47:59;22.83;;;11.55;;
33403;SDS011;19751;40.274;18.268;2022-10-31T09:50:42;21.70;;;12.10;;
33403;SDS011;19751;40.274;18.268;2022-10-31T09:53:31;23.92;;;12.10;;
33403;SDS011;19751;40.274;18.268;2022-10-31T09:56:01;19.05;;;10.88;;
33403;SDS011;19751;40.274;18.268;2022-10-31T09:58:32;19.23;;;10.65;;
33403;SDS011;19751;40.274;18.268;2022-10-31T10:01:04;19.15;;;9.65;;
33403;SDS011;19751;40.274;18.268;2022-10-31T10:08:44;27.58;;;11.10;;
33403;SDS011;19751;40.274;18.268;2022-10-31T10:16:52;20.77;;;10.73;;
33403;SDS011;19751;40.274;18.268;2022-10-31T10:32:30;21.65;;;10.82;;
33403;SDS011;19751;40.274;18.268;2022-10-31T10:35:04;19.10;;;10.40;;
33403;SDS011;19751;40.274;18.268;2022-10-31T10:37:35;16.33;;;9.60;;
33403;SDS011;19751;40.274;18.268;2022-10-31T10:40:21;15.38;;;8.02;;
33403;SDS011;19751;40.274;18.268;2022-10-31T10:42:56;19.85;;;9.55;;
33403;SDS011;19751;40.274;18.268;2022-10-31T10:45:49;20.13;;;9.38;;
33403;SDS011;19751;40.274;18.268;2022-10-31T10:48:40;16.67;;;8.68;;
33403;SDS011;19751;40.274;18.268;2022-10-31T10:51:10;18.58;;;9.15;;
33403;SDS011;19751;40.274;18.268;2022-10-31T10:53:54;19.05;;;9.63;;
33403;SDS011;19751;40.274;18.268;2022-10-31T10:56:50;26.00;;;10.73;;
33403;SDS011;19751;40.274;18.268;2022-10-31T10:59:21;21.25;;;10.15;;
33403;SDS011;19751;40.274;18.268;2022-10-31T11:01:51;19.73;;;9.48;;
33403;SDS011;19751;40.274;18.268;2022-10-31T11:04:33;15.00;;;8.48;;
33403;SDS011;19751;40.274;18.268;2022-10-31T11:07:10;14.60;;;9.35;;
33403;SDS011;19751;40.274;18.268;2022-10-31T11:09:36;17.75;;;8.40;;
33403;SDS011;19751;40.274;18.268;2022-10-31T11:12:22;13.35;;;8.52;;
33403;SDS011;19751;40.274;18.268;2022-10-31T11:14:57;19.58;;;11.30;;
33403;SDS011;19751;40.274;18.268;2022-10-31T11:17:32;17.55;;;8.70;;
33403;SDS011;19751;40.274;18.268;2022-10-31T11:22:38;18.30;;;9.20;;
33403;SDS011;19751;40.274;18.268;2022-10-31T11:25:23;15.75;;;8.98;;
33403;SDS011;19751;40.274;18.268;2022-10-31T11:28:03;13.90;;;8.45;;
33403;SDS011;19751;40.274;18.268;2022-10-31T11:30:31;17.88;;;9.10;;
33403;SDS011;19751;40.274;18.268;2022-10-31T11:33:11;18.02;;;11.05;;
33403;SDS011;19751;40.274;18.268;2022-10-31T11:35:47;13.10;;;8.57;;
33403;SDS011;19751;40.274;18.268;2022-10-31T11:38:17;19.02;;;9.70;;
33403;SDS011;19751;40.274;18.268;2022-10-31T11:40:52;14.82;;;9.48;;
33403;SDS011;19751;40.274;18.268;2022-10-31T11:43:38;21.73;;;12.30;;
33403;SDS011;19751;40.274;18.268;2022-10-31T11:46:11;16.65;;;9.52;;
33403;SDS011;19751;40.274;18.268;2022-10-31T11:48:46;17.77;;;10.25;;
33403;SDS011;19751;40.274;18.268;2022-10-31T11:51:19;15.23;;;9.80;;
33403;SDS011;19751;40.274;18.268;2022-10-31T11:53:51;21.63;;;11.93;;
33403;SDS011;19751;40.274;18.268;2022-10-31T11:56:18;16.13;;;10.07;;
33403;SDS011;19751;40.274;18.268;2022-10-31T11:58:54;20.08;;;10.05;;
33403;SDS011;19751;40.274;18.268;2022-10-31T12:01:23;19.73;;;9.15;;
33403;SDS011;19751;40.274;18.268;2022-10-31T12:06:34;19.08;;;8.80;;
33403;SDS011;19751;40.274;18.268;2022-10-31T12:09:20;18.15;;;8.73;;
33403;SDS011;19751;40.274;18.268;2022-10-31T12:17:34;17.98;;;10.88;;
33403;SDS011;19751;40.274;18.268;2022-10-31T12:28:22;21.08;;;10.32;;
33403;SDS011;19751;40.274;18.268;2022-10-31T12:31:03;21.23;;;10.73;;
33403;SDS011;19751;40.274;18.268;2022-10-31T12:36:19;26.08;;;12.32;;
33403;SDS011;19751;40.274;18.268;2022-10-31T12:42:01;18.75;;;11.32;;
33403;SDS011;19751;40.274;18.268;2022-10-31T12:47:40;22.88;;;13.10;;
33403;SDS011;19751;40.274;18.268;2022-10-31T12:50:25;20.05;;;11.82;;
33403;SDS011;19751;40.274;18.268;2022-10-31T13:01:30;19.80;;;10.35;;
33403;SDS011;19751;40.274;18.268;2022-10-31T13:06:58;19.83;;;10.77;;
33403;SDS011;19751;40.274;18.268;2022-10-31T13:09:36;27.10;;;12.75;;
33403;SDS011;19751;40.274;18.268;2022-10-31T13:12:08;18.70;;;9.80;;
33403;SDS011;19751;40.274;18.268;2022-10-31T13:14:39;21.63;;;11.43;;
33403;SDS011;19751;40.274;18.268;2022-10-31T13:17:09;25.98;;;12.77;;
33403;SDS011;19751;40.274;18.268;2022-10-31T13:19:46;35.45;;;14.00;;
33403;SDS011;19751;40.274;18.268;2022-10-31T13:27:47;26.17;;;12.48;;
33403;SDS011;19751;40.274;18.268;2022-10-31T13:30:18;30.00;;;13.02;;
33403;SDS011;19751;40.274;18.268;2022-10-31T13:33:08;26.90;;;15.85;;
33403;SDS011;19751;40.274;18.268;2022-10-31T13:38:11;27.02;;;13.85;;
33403;SDS011;19751;40.274;18.268;2022-10-31T13:41:09;22.83;;;12.57;;
33403;SDS011;19751;40.274;18.268;2022-10-31T13:46:35;31.15;;;14.32;;
33403;SDS011;19751;40.274;18.268;2022-10-31T13:49:03;22.30;;;11.90;;
33403;SDS011;19751;40.274;18.268;2022-10-31T13:51:31;24.40;;;12.05;;
33403;SDS011;19751;40.274;18.268;2022-10-31T13:54:59;29.67;;;13.80;;
33403;SDS011;19751;40.274;18.268;2022-10-31T13:56:57;22.35;;;12.48;;
33403;SDS011;19751;40.274;18.268;2022-10-31T13:59:23;21.88;;;13.35;;
33403;SDS011;19751;40.274;18.268;2022-10-31T14:01:53;24.45;;;14.88;;
33403;SDS011;19751;40.274;18.268;2022-10-31T14:04:25;23.73;;;14.15;;
33403;SDS011;19751;40.274;18.268;2022-10-31T14:09:50;20.02;;;10.98;;
33403;SDS011;19751;40.274;18.268;2022-10-31T14:12:24;22.42;;;11.85;;
33403;SDS011;19751;40.274;18.268;2022-10-31T14:15:02;24.85;;;14.25;;
33403;SDS011;19751;40.274;18.268;2022-10-31T14:17:53;15.20;;;10.48;;
33403;SDS011;19751;40.274;18.268;2022-10-31T14:31:34;23.38;;;11.80;;
33403;SDS011;19751;40.274;18.268;2022-10-31T14:36:45;28.30;;;11.75;;
33403;SDS011;19751;40.274;18.268;2022-10-31T14:39:21;27.13;;;11.65;;
33403;SDS011;19751;40.274;18.268;2022-10-31T14:42:05;24.45;;;12.07;;
33403;SDS011;19751;40.274;18.268;2022-10-31T14:47:27;19.27;;;10.38;;
33403;SDS011;19751;40.274;18.268;2022-10-31T14:52:28;22.17;;;10.00;;
33403;SDS011;19751;40.274;18.268;2022-10-31T14:54:54;17.83;;;8.75;;
33403;SDS011;19751;40.274;18.268;2022-10-31T14:57:25;17.35;;;8.70;;
33403;SDS011;19751;40.274;18.268;2022-10-31T14:59:56;16.92;;;8.45;;
33403;SDS011;19751;40.274;18.268;2022-10-31T15:02:30;16.27;;;9.52;;
33403;SDS011;19751;40.274;18.268;2022-10-31T15:04:59;15.35;;;8.70;;
33403;SDS011;19751;40.274;18.268;2022-10-31T15:07:26;18.92;;;8.95;;
33403;SDS011;19751;40.274;18.268;2022-10-31T15:10:19;24.88;;;9.20;;
33403;SDS011;19751;40.274;18.268;2022-10-31T15:12:50;16.48;;;8.00;;
33403;SDS011;19751;40.274;18.268;2022-10-31T15:17:50;20.83;;;8.40;;
33403;SDS011;19751;40.274;18.268;2022-10-31T15:20:29;19.38;;;8.60;;
33403;SDS011;19751;40.274;18.268;2022-10-31T15:22:56;18.35;;;9.48;;
33403;SDS011;19751;40.274;18.268;2022-10-31T15:25:24;16.60;;;8.25;;
33403;SDS011;19751;40.274;18.268;2022-10-31T15:27:57;16.38;;;8.98;;
33403;SDS011;19751;40.274;18.268;2022-10-31T15:30:23;21.10;;;9.48;;
33403;SDS011;19751;40.274;18.268;2022-10-31T15:32:51;15.60;;;9.77;;
33403;SDS011;19751;40.274;18.268;2022-10-31T15:37:54;17.45;;;8.35;;
33403;SDS011;19751;40.274;18.268;2022-10-31T15:40:21;16.15;;;8.05;;
33403;SDS011;19751;40.274;18.268;2022-10-31T15:42:53;13.38;;;8.23;;
33403;SDS011;19751;40.274;18.268;2022-10-31T15:45:21;18.98;;;8.45;;
33403;SDS011;19751;40.274;18.268;2022-10-31T15:47:54;13.43;;;8.60;;
33403;SDS011;19751;40.274;18.268;2022-10-31T15:50:28;14.30;;;7.70;;
33403;SDS011;19751;40.274;18.268;2022-10-31T15:53:00;16.13;;;9.10;;
33403;SDS011;19751;40.274;18.268;2022-10-31T15:55:29;22.65;;;9.25;;
33403;SDS011;19751;40.274;18.268;2022-10-31T15:57:59;24.25;;;9.52;;
33403;SDS011;19751;40.274;18.268;2022-10-31T16:00:33;18.30;;;9.68;;
33403;SDS011;19751;40.274;18.268;2022-10-31T16:05:44;20.13;;;8.98;;
33403;SDS011;19751;40.274;18.268;2022-10-31T16:08:22;12.88;;;8.40;;
33403;SDS011;19751;40.274;18.268;2022-10-31T16:10:57;19.40;;;9.57;;
33403;SDS011;19751;40.274;18.268;2022-10-31T16:13:29;23.73;;;11.75;;
33403;SDS011;19751;40.274;18.268;2022-10-31T16:15:58;20.95;;;10.65;;
33403;SDS011;19751;40.274;18.268;2022-10-31T16:18:26;20.33;;;10.90;;
33403;SDS011;19751;40.274;18.268;2022-10-31T16:20:53;17.17;;;8.98;;
33403;SDS011;19751;40.274;18.268;2022-10-31T16:23:21;20.15;;;10.05;;
33403;SDS011;19751;40.274;18.268;2022-10-31T16:25:50;15.65;;;10.25;;
33403;SDS011;19751;40.274;18.268;2022-10-31T16:28:20;21.38;;;10.80;;
33403;SDS011;19751;40.274;18.268;2022-10-31T16:30:49;16.27;;;9.85;;
33403;SDS011;19751;40.274;18.268;2022-10-31T16:33:21;24.42;;;11.65;;
33403;SDS011;19751;40.274;18.268;2022-10-31T16:35:47;17.75;;;9.60;;
33403;SDS011;19751;40.274;18.268;2022-10-31T16:38:13;20.80;;;11.52;;
33403;SDS011;19751;40.274;18.268;2022-10-31T16:40:38;17.90;;;9.93;;
33403;SDS011;19751;40.274;18.268;2022-10-31T16:43:04;19.05;;;10.90;;
33403;SDS011;19751;40.274;18.268;2022-10-31T16:45:34;23.20;;;11.50;;
33403;SDS011;19751;40.274;18.268;2022-10-31T16:48:21;21.10;;;10.90;;
33403;SDS011;19751;40.274;18.268;2022-10-31T16:50:47;19.90;;;10.88;;
33403;SDS011;19751;40.274;18.268;2022-10-31T16:53:14;19.95;;;10.45;;
33403;SDS011;19751;40.274;18.268;2022-10-31T16:55:45;24.95;;;10.25;;
33403;SDS011;19751;40.274;18.268;2022-10-31T16:58:23;16.55;;;10.63;;
33403;SDS011;19751;40.274;18.268;2022-10-31T17:00:50;30.73;;;13.98;;
33403;SDS011;19751;40.274;18.268;2022-10-31T17:03:17;22.48;;;11.25;;